Flight Track Log - Related Links

Times and Time Zones

All times are in EDT time to prevent confusion due to time zone crossing. See the ABX188 flight status page for this flight to view local times or setup timezone preferences in your user account.

Time Position Orientation Groundspeed Altitude Reporting Facility
EDT Latitude Longitude Course Direction KTS MPH feet Rate Location/Type
Mon 11:11:24 PM 42.3500 -71.0167 231° Southwest 137 158 600  Level KA90
Mon 11:13:08 PM 42.3047 -71.0925 231° Southwest 159 183 3,800 2,451 Climbing Boston Center
Mon 11:14:08 PM 42.2831 -71.1886 253° West 220 253 7,300 3,050 Climbing Boston Center
Mon 11:15:08 PM 42.2964 -71.2781 281° West 239 275 9,900 2,050 Climbing Boston Center
Mon 11:16:08 PM 42.3039 -71.4042 275° West 298 343 11,400 2,250 Climbing Boston Center
Mon 11:17:08 PM 42.2986 -71.5250 267° West 349 402 14,400 3,200 Climbing Boston Center
Mon 11:18:08 PM 42.2936 -71.6656 267° West 377 434 17,800 3,550 Climbing Boston Center
Mon 11:19:08 PM 42.2842 -71.8228 265° West 388 447 21,500 3,150 Climbing Boston Center
Mon 11:20:08 PM 42.2786 -71.9658 267° West 388 447 24,100 2,500 Climbing Boston Center
Mon 11:21:08 PM 42.2708 -72.1175 266° West 393 452 26,500 2,250 Climbing Boston Center
Mon 11:22:08 PM 42.2628 -72.2717 266° West 399 459 28,600 1,545 Climbing Boston Center
Mon 11:23:20 PM 42.2544 -72.4317 266° West 420 483 29,900 1,591 Climbing Boston Center
Mon 11:24:20 PM 42.2439 -72.6336 266° West 442 509 32,100 2,100 Climbing Boston Center
Mon 11:25:20 PM 42.2331 -72.8017 265° West 450 518 34,100 1,650 Climbing Boston Center
Mon 11:26:20 PM 42.2264 -72.9531 267° West 456 525 35,400 1,450 Climbing Boston Center
Mon 11:27:20 PM 42.2150 -73.1269 265° West 461 531 37,000 1,300 Climbing Boston Center
Mon 11:28:20 PM 42.2033 -73.2978 265° West 461 531 38,000 450 Climbing Boston Center
Mon 11:29:20 PM 42.1978 -73.4603 267° West 455 524 37,900 -50 Descending Boston Center
Mon 11:30:20 PM 42.1856 -73.6533 265° West 457 526 37,900 50 Level Boston Center
Mon 11:31:20 PM 42.1733 -73.8100 264° West 468 539 38,000 50 Climbing Boston Center
Mon 11:32:20 PM 42.1608 -73.9778 264° West 468 539 38,000  Level Boston Center
Mon 11:33:20 PM 42.1500 -74.1483 265° West 468 539 38,000  Level Boston Center
Mon 11:34:20 PM 42.1389 -74.3189 265° West 462 532 38,000  Level Boston Center
Mon 11:36:32 PM 42.1108 -74.6792 264° West 462 532 38,000  Level New York Center
Mon 11:37:31 PM 42.0989 -74.8489 265° West 462 532 38,000  Level New York Center
Mon 11:38:29 PM 42.0842 -75.0322 264° West 462 532 38,000  Level New York Center
Mon 11:39:30 PM 42.0736 -75.2075 265° West 462 532 38,000  Level New York Center
Mon 11:40:29 PM 42.0403 -75.3728 255° West 462 532 38,000  Level New York Center
Mon 11:41:30 PM 41.9822 -75.5278 243° Southwest 462 532 38,000  Level New York Center
Mon 11:42:29 PM 41.9403 -75.6894 251° West 462 532 38,000  Level New York Center
Mon 11:43:29 PM 41.8981 -75.8506 251° West 462 532 38,000  Level New York Center
Mon 11:44:32 PM 41.8533 -76.0142 250° West 462 532 38,000  Level New York Center
Mon 11:45:30 PM 41.8106 -76.1778 251° West 462 532 38,000  Level New York Center
Mon 11:46:31 PM 41.7658 -76.3383 250° West 462 532 38,000  Level New York Center
Mon 11:47:29 PM 41.7225 -76.5014 250° West 462 532 38,000  Level New York Center
Mon 11:48:31 PM 41.6772 -76.6614 249° West 462 532 38,000  Level New York Center
Mon 11:49:30 PM 41.6367 -76.8050 249° West 462 532 38,000  Level New York Center
Mon 11:50:29 PM 41.5908 -76.9672 249° West 462 532 38,000  Level New York Center
Mon 11:51:29 PM 41.5469 -77.1297 250° West 467 537 38,000  Level New York Center
Mon 11:53:33 PM 41.4469 -77.4803 249° West 459 528 38,000  Level Cleveland Center
Mon 11:54:33 PM 41.3992 -77.6461 249° West 465 535 38,000  Level Cleveland Center
Mon 11:55:33 PM 41.3531 -77.8058 249° West 465 535 38,000  Level Cleveland Center
Mon 11:56:33 PM 41.3069 -77.9681 249° West 465 535 38,000  Level Cleveland Center
Mon 11:57:33 PM 41.2606 -78.1303 249° West 470 541 38,000  Level Cleveland Center
Mon 11:58:33 PM 41.2158 -78.2919 250° West 476 548 38,000  Level Cleveland Center
Mon 11:59:33 PM 41.1689 -78.4536 249° West 471 542 38,000  Level Cleveland Center
Tue 12:00:33 AM 41.1217 -78.6150 249° West 471 542 38,000  Level Cleveland Center
Tue 12:01:33 AM 41.0744 -78.7761 249° West 471 542 38,000  Level Cleveland Center
Tue 12:02:33 AM 41.0267 -78.9344 248° West 471 542 38,000  Level Cleveland Center
Tue 12:03:33 AM 40.9789 -79.0978 249° West 471 542 38,000  Level Cleveland Center
Tue 12:04:33 AM 40.9308 -79.2556 248° West 471 542 38,000  Level Cleveland Center
Tue 12:05:33 AM 40.8806 -79.4186 248° West 476 548 38,000  Level Cleveland Center
Tue 12:06:33 AM 40.8319 -79.5758 248° West 476 548 38,000  Level Cleveland Center
Tue 12:07:33 AM 40.7833 -79.7358 248° West 476 548 38,000  Level Cleveland Center
Tue 12:08:33 AM 40.7364 -79.8925 248° West 476 548 38,000  Level Cleveland Center
Tue 12:09:33 AM 40.6831 -80.0575 247° West 481 554 38,000  Level Cleveland Center
Tue 12:10:33 AM 40.6336 -80.2219 248° West 481 554 38,000  Level Cleveland Center
Tue 12:11:33 AM 40.5881 -80.3644 247° West 481 554 38,000  Level Cleveland Center
Tue 12:12:33 AM 40.5550 -80.5311 255° West 475 547 38,000  Level Cleveland Center
Tue 12:13:33 AM 40.5217 -80.7006 256° West 469 540 38,000  Level Cleveland Center
Tue 12:14:33 AM 40.4900 -80.8669 256° West 469 540 38,000  Level Cleveland Center
Tue 12:16:14 AM 40.4369 -81.1403 256° West 471 542 38,000  Level Indianapolis Center
Tue 12:17:15 AM 40.3936 -81.3081 251° West 480 552 38,000  Level Indianapolis Center
Tue 12:18:15 AM 40.3419 -81.4742 248° West 485 558 38,000  Level Indianapolis Center
Tue 12:19:16 AM 40.2906 -81.6406 248° West 486 559 38,000  Level Indianapolis Center
Tue 12:20:17 AM 40.2361 -81.8142 248° West 485 558 38,000  Level Indianapolis Center
Tue 12:21:17 AM 40.1836 -81.9789 247° West 486 559 38,000  Level Indianapolis Center
Tue 12:22:18 AM 40.1314 -82.1408 247° West 481 554 38,000  Level Indianapolis Center
Tue 12:23:18 AM 40.0789 -82.3036 247° West 483 556 38,000  Level Indianapolis Center
Tue 12:24:19 AM 40.0267 -82.4650 247° West 481 554 38,000  Level Indianapolis Center
Tue 12:25:20 AM 39.9731 -82.6253 246° West 477 549 38,000  Level Indianapolis Center
Tue 12:26:20 AM 39.9203 -82.7850 247° West 475 547 38,000 -744 Level Indianapolis Center
Tue 12:27:21 AM 39.8681 -82.9461 247° West 476 548 36,500 -2,628 Descending Indianapolis Center
Tue 12:28:21 AM 39.8133 -83.1086 246° West 482 555 32,700 -3,669 Descending Indianapolis Center
Tue 12:29:22 AM 39.7581 -83.2719 246° West 485 558 29,100 -3,917 Descending Indianapolis Center
Tue 12:30:22 AM 39.7031 -83.4303 246° West 469 540 24,800 -3,769 Descending Indianapolis Center
Tue 12:31:23 AM 39.6525 -83.5806 246° West 446 513 21,500 -3,174 Descending Indianapolis Center
Tue 12:32:23 AM 39.6050 -83.7194 246° West 419 482 18,400 -2,975 Descending Indianapolis Center
Tue 12:33:24 AM 39.5608 -83.8500 246° West 395 455 15,500 -2,803 Descending Indianapolis Center
Tue 12:34:25 AM 39.5175 -83.9753 246° West 380 437 12,700 -2,231 Descending Indianapolis Center
Tue 12:35:25 AM 39.4664 -84.0894 240° Southwest 362 417 11,000 -893 Descending Indianapolis Center
Tue 12:36:26 AM 39.3972 -84.1828 226° Southwest 357 411 10,900 -446 Descending Indianapolis Center
Tue 12:37:26 AM 39.3306 -84.2714 226° Southwest 346 398 10,100 -793 Descending Indianapolis Center
Tue 12:38:27 AM 39.2764 -84.3444 226° Southwest 291 335 9,300 -1,041 Descending Indianapolis Center
Tue 12:39:27 AM 39.2347 -84.4039 228° Southwest 272 313 8,000 -1,190 Descending Indianapolis Center
Tue 12:40:28 AM 39.1858 -84.4750 228° Southwest 265 305 6,900 -545 Descending Indianapolis Center
Tue 12:41:28 AM 39.1650 -84.5531 251° West 245 282 6,900  Level Indianapolis Center
Tue 12:42:29 AM 39.1661 -84.6367 271° West 234 269 6,900 75 Level Indianapolis Center
Tue 12:42:48 AM 39.1667 -84.6667 271° West 204 235 7,000 -380 Climbing Cincinnati TRACON
Tue 12:43:48 AM 39.1667 -84.7333 270° West 160 184 6,400 -850 Descending Cincinnati TRACON
Tue 12:44:48 AM 39.1667 -84.7833 270° West 164 189 5,300 -1,091 Descending Cincinnati TRACON
Tue 12:45:49 AM 39.1667 -84.8500 270° West 164 189 4,200 -1,000 Descending Cincinnati TRACON
Tue 12:46:30 AM 39.1697 -84.8850 276° West 165 190 3,600 -412 Descending Indianapolis Center
Tue 12:47:31 AM 39.1250 -84.8819 177° South 184 212 3,500 -76 Descending Indianapolis Center
Tue 12:47:49 AM 39.1167 -84.8667 125° Southeast 180 207 3,500 -692 Level Cincinnati TRACON
Tue 12:48:49 AM 39.0667 -84.8333 153° Southeast 180 207 2,600 -600 Descending Cincinnati TRACON
Tue 12:49:49 AM 39.0500 -84.7833 113° Southeast 174 200 2,300 -600 Descending Cincinnati TRACON
Tue 12:50:49 AM 39.0500 -84.7333 90° East 141 162 1,400 -900 Descending Cincinnati TRACON
Tue 12:52:00 AM 39.0333 -84.6667 104° East  Level FlightAware Approximate
Tue 12:59:00 AM 39.0488 -84.6678 104° East  Level Estimated

Login

Don't have an account? Register now (free) for customized features, flight alerts, and more!